»·PEaware :: N12321 KSBP-KAJO

N12321 :: KSBP-KAJO

FLIGHT INFORMATION

Flight Status: Arrived
Operator: Privately registered:
United States
More flights under this callsign
Pilot: Daniel B. (28719)
Aircraft: CESSNA 172 SKYHAWK
(C172)
More flights by this aircraft type
Origin: KSBP San Luis Co Regl
United States
Destination: KAJO Corona Mun
United States
More flights between these airports :: More routes between these airports
Route: RZS V186 PDZ
File this flight plan on PilotEdge
Remarks:
Altitude:
(Current/Filed)
7,000ft
Speed:
(Current/Filed)
115kts
Departed: 19-Aug-20 03:56 PM
Arrived: 19-Aug-20 05:39 PM
Distance/Time
Traveled:
170nm/1:43
Distance/Time
To Go:
Arrived

Flight Plot

Page will automatically refresh every two minutes.


Map Options




Map Legend


Flown Route
Filed Route
Departure Airport
Arrival Airport
Navaid (VOR, NDB)
Fix

Horizontal Profiles

Position Reports

Time Latitude Longitude Heading Altitude Ground
Speed
19-Aug-20 15:32 35.238802 -120.639177 270 216ft 0kts
19-Aug-20 15:33 35.238802 -120.639177 270 216ft 0kts
19-Aug-20 15:34 35.238802 -120.639177 270 216ft 0kts
19-Aug-20 15:35 35.238802 -120.639177 270 216ft 0kts
19-Aug-20 15:36 35.238802 -120.639177 270 216ft 0kts
19-Aug-20 15:37 35.238802 -120.639177 270 216ft 0kts
19-Aug-20 15:38 35.238802 -120.639177 270 216ft 0kts
19-Aug-20 15:39 35.238802 -120.639177 270 216ft 0kts
19-Aug-20 15:40 35.238802 -120.639177 270 216ft 0kts
19-Aug-20 15:41 35.238802 -120.639177 270 216ft 0kts
19-Aug-20 15:42 35.238802 -120.639177 270 216ft 0kts
19-Aug-20 15:43 35.238802 -120.639177 270 216ft 0kts
19-Aug-20 15:44 35.238802 -120.639177 270 216ft 0kts
19-Aug-20 15:45 35.238802 -120.639177 270 216ft 0kts
19-Aug-20 15:46 35.238802 -120.639177 270 216ft 0kts
19-Aug-20 15:47 35.238802 -120.639177 270 216ft 0kts
19-Aug-20 15:48 35.238802 -120.639177 270 216ft 0kts
19-Aug-20 15:49 35.238802 -120.639177 270 216ft 0kts
19-Aug-20 15:50 35.238802 -120.639177 270 216ft 0kts
19-Aug-20 15:51 35.237562 -120.639497 125 216ft 12kts
19-Aug-20 15:52 35.235653 -120.636137 125 216ft 11kts
19-Aug-20 15:53 35.233936 -120.633136 125 216ft 10kts
19-Aug-20 15:54 35.233248 -120.632342 199 216ft 0kts
19-Aug-20 15:55 35.235709 -120.638106 308 346ft 59kts
19-Aug-20 15:56 35.246610 -120.656522 307 1133ft 66kts
19-Aug-20 15:57 35.257894 -120.675308 308 1916ft 70kts
19-Aug-20 15:58 35.269390 -120.694455 305 2667ft 70kts
19-Aug-20 15:59 35.281011 -120.714079 308 3370ft 72kts
19-Aug-20 16:00 35.275501 -120.731155 154 3992ft 102kts
19-Aug-20 16:01 35.260947 -120.702562 113 4637ft 99kts
19-Aug-20 16:02 35.245508 -120.674517 135 5219ft 100kts
19-Aug-20 16:03 35.225605 -120.650441 135 5760ft 101kts
19-Aug-20 16:04 35.205750 -120.626244 138 6274ft 101kts
19-Aug-20 16:05 35.185514 -120.602381 135 6761ft 101kts
19-Aug-20 16:06 35.164852 -120.576387 135 7029ft 122kts
19-Aug-20 16:07 35.139374 -120.546406 138 7047ft 128kts
19-Aug-20 16:08 35.113775 -120.515833 137 7044ft 129kts
19-Aug-20 16:09 35.088666 -120.484766 136 7048ft 128kts
19-Aug-20 16:10 35.064766 -120.452415 135 7051ft 126kts
19-Aug-20 16:11 35.039477 -120.422347 137 7031ft 128kts
19-Aug-20 16:12 35.014619 -120.391810 134 7045ft 126kts
19-Aug-20 16:13 34.989886 -120.361773 141 7037ft 124kts
19-Aug-20 16:14 34.965941 -120.331830 139 7049ft 121kts
19-Aug-20 16:15 34.942801 -120.302356 136 7050ft 121kts
19-Aug-20 16:16 34.919067 -120.273445 139 7032ft 119kts
19-Aug-20 16:17 34.895992 -120.245474 137 7047ft 117kts
19-Aug-20 16:18 34.873217 -120.217356 136 7061ft 115kts
19-Aug-20 16:19 34.850576 -120.189380 137 7054ft 115kts
19-Aug-20 16:20 34.827486 -120.161933 137 7036ft 116kts
19-Aug-20 16:21 34.805528 -120.133039 138 7024ft 115kts
19-Aug-20 16:22 34.782758 -120.105265 139 7006ft 115kts
19-Aug-20 16:23 34.760078 -120.077851 139 7017ft 114kts
19-Aug-20 16:24 34.737353 -120.050935 141 7022ft 114kts
19-Aug-20 16:25 34.714529 -120.023922 140 7026ft 114kts
19-Aug-20 16:26 34.691950 -119.996753 137 7028ft 114kts
19-Aug-20 16:27 34.669695 -119.969266 136 7031ft 114kts
19-Aug-20 16:28 34.647104 -119.941937 138 7025ft 114kts
19-Aug-20 16:29 34.624875 -119.914230 137 7028ft 113kts
19-Aug-20 16:30 34.601978 -119.887647 138 7025ft 114kts
19-Aug-20 16:31 34.579515 -119.860851 139 7020ft 115kts
19-Aug-20 16:32 34.556928 -119.833315 138 7035ft 114kts
19-Aug-20 16:33 34.535130 -119.804405 136 7004ft 116kts
19-Aug-20 16:34 34.513260 -119.775991 129 7005ft 116kts
19-Aug-20 16:35 34.493898 -119.744513 124 7003ft 115kts
19-Aug-20 16:36 34.475913 -119.712458 128 7000ft 116kts
19-Aug-20 16:37 34.457801 -119.679681 124 6980ft 116kts
19-Aug-20 16:38 34.440472 -119.646884 125 7007ft 114kts
19-Aug-20 16:39 34.422709 -119.614851 127 7037ft 114kts
19-Aug-20 16:40 34.404790 -119.582654 125 7009ft 117kts
19-Aug-20 16:41 34.386447 -119.550096 126 7004ft 115kts
19-Aug-20 16:42 34.368988 -119.517677 125 7032ft 115kts
19-Aug-20 16:43 34.351760 -119.484604 125 7019ft 116kts
19-Aug-20 16:44 34.333578 -119.452366 123 7018ft 117kts
19-Aug-20 16:45 34.319223 -119.417174 103 6986ft 120kts
19-Aug-20 16:46 34.318463 -119.377067 90 7014ft 119kts
19-Aug-20 16:47 34.321492 -119.337278 88 7040ft 119kts
19-Aug-20 16:48 34.323809 -119.296979 90 7033ft 120kts
19-Aug-20 16:49 34.326697 -119.256401 87 7017ft 121kts
19-Aug-20 16:50 34.329448 -119.215911 90 7017ft 120kts
19-Aug-20 16:51 34.332772 -119.175338 85 7006ft 121kts
19-Aug-20 16:52 34.336181 -119.134843 86 6996ft 121kts
19-Aug-20 16:53 34.339616 -119.094456 87 6988ft 121kts
19-Aug-20 16:54 34.343271 -119.054221 83 7016ft 119kts
19-Aug-20 16:55 34.346525 -119.014109 88 7026ft 120kts
19-Aug-20 16:56 34.348763 -118.973641 88 7031ft 121kts
19-Aug-20 16:57 34.351604 -118.932475 84 7029ft 123kts
19-Aug-20 16:59 34.354691 -118.890512 102 6986ft 125kts
19-Aug-20 17:00 34.344337 -118.850968 117 7010ft 124kts
19-Aug-20 17:01 34.331306 -118.811897 111 6997ft 125kts
19-Aug-20 17:02 34.318830 -118.772404 112 7013ft 125kts
19-Aug-20 17:03 34.304876 -118.733597 112 7016ft 126kts
19-Aug-20 17:04 34.291811 -118.694350 113 7035ft 125kts
19-Aug-20 17:05 34.278027 -118.655339 115 7021ft 125kts
19-Aug-20 17:06 34.264268 -118.616808 116 7013ft 125kts
19-Aug-20 17:07 34.251484 -118.579394 113 7019ft 124kts
19-Aug-20 17:08 34.240516 -118.543167 112 6996ft 125kts
19-Aug-20 17:09 34.229838 -118.509777 115 6984ft 124kts
19-Aug-20 17:10 34.219017 -118.477839 116 6973ft 124kts
19-Aug-20 17:11 34.208229 -118.446490 113 6998ft 123kts
19-Aug-20 17:12 34.198109 -118.414375 115 7012ft 123kts
19-Aug-20 17:13 34.188214 -118.380999 108 7026ft 125kts
19-Aug-20 17:14 34.179262 -118.347388 114 7043ft 124kts
19-Aug-20 17:15 34.167652 -118.313401 116 6996ft 126kts
19-Aug-20 17:15 34.158671 -118.285712 113 6988ft 126kts
19-Aug-20 17:17 34.147851 -118.247421 110 7005ft 125kts
19-Aug-20 17:18 34.138541 -118.215029 112 7016ft 125kts
19-Aug-20 17:18 34.129545 -118.189839 116 7018ft 125kts
19-Aug-20 17:20 34.117820 -118.154098 104 7011ft 126kts
19-Aug-20 17:20 34.111598 -118.126897 110 7033ft 124kts
19-Aug-20 17:21 34.100429 -118.094439 116 7034ft 125kts
19-Aug-20 17:22 34.090824 -118.061294 109 6975ft 129kts
19-Aug-20 17:23 34.080533 -118.026460 112 6989ft 125kts
19-Aug-20 17:24 34.069692 -117.992529 110 6985ft 126kts
19-Aug-20 17:25 34.059459 -117.957806 112 6994ft 126kts
19-Aug-20 17:26 34.047882 -117.922895 115 6923ft 122kts
19-Aug-20 17:27 34.038349 -117.889131 111 6382ft 122kts
19-Aug-20 17:28 34.028400 -117.855736 111 5859ft 121kts
19-Aug-20 17:29 34.017670 -117.823429 116 5327ft 121kts
19-Aug-20 17:30 34.005970 -117.792439 130 4752ft 123kts
19-Aug-20 17:31 33.988969 -117.764619 130 4188ft 121kts
19-Aug-20 17:32 33.971992 -117.736048 129 3989ft 117kts
19-Aug-20 17:33 33.952840 -117.704009 127 3992ft 130kts
19-Aug-20 17:34 33.932116 -117.668169 130 3717ft 114kts
19-Aug-20 17:35 33.912751 -117.634878 107 2715ft 118kts
19-Aug-20 17:36 33.907260 -117.593653 92 1485ft 106kts
19-Aug-20 17:37 33.898135 -117.583970 261 928ft 52kts
19-Aug-20 17:38 33.897695 -117.599758 267 537ft 20kts
19-Aug-20 17:39 33.897295 -117.600677 90 537ft 12kts
19-Aug-20 17:40 33.896956 -117.598123 182 537ft 7kts
19-Aug-20 17:41 33.896675 -117.598593 102 537ft 0kts
19-Aug-20 17:42 33.896675 -117.598593 102 537ft 0kts
19-Aug-20 17:43 33.896675 -117.598593 102 537ft 0kts
19-Aug-20 17:44 33.896675 -117.598593 102 537ft 0kts
19-Aug-20 17:45 33.896675 -117.598593 102 537ft 0kts
19-Aug-20 17:46 33.896675 -117.598593 102 537ft 0kts
19-Aug-20 17:47 33.896675 -117.598593 102 537ft 0kts

Navigation Log

Ident Type
Flight plan parsing failed, navigation log unavailable